sensor_id;sensor_type;location;lat;lon;timestamp;temperature;humidity
9564;DHT22;4820;50.870;4.702;2023-09-30T00:01:11;13.30;99.90
9564;DHT22;4820;50.870;4.702;2023-09-30T00:03:37;13.30;99.90
9564;DHT22;4820;50.870;4.702;2023-09-30T00:06:03;13.30;99.90
9564;DHT22;4820;50.870;4.702;2023-09-30T00:08:29;13.40;99.90
9564;DHT22;4820;50.870;4.702;2023-09-30T00:10:55;13.40;99.90
9564;DHT22;4820;50.870;4.702;2023-09-30T00:13:22;13.40;99.90
9564;DHT22;4820;50.870;4.702;2023-09-30T00:15:47;13.40;99.90
9564;DHT22;4820;50.870;4.702;2023-09-30T00:18:13;13.40;99.90
9564;DHT22;4820;50.870;4.702;2023-09-30T00:20:39;13.40;99.90
9564;DHT22;4820;50.870;4.702;2023-09-30T00:23:05;13.30;99.90
9564;DHT22;4820;50.870;4.702;2023-09-30T00:25:32;13.40;99.90
9564;DHT22;4820;50.870;4.702;2023-09-30T00:27:59;13.40;99.90
9564;DHT22;4820;50.870;4.702;2023-09-30T00:30:25;13.40;99.90
9564;DHT22;4820;50.870;4.702;2023-09-30T00:32:50;13.40;99.90
9564;DHT22;4820;50.870;4.702;2023-09-30T00:35:17;13.40;99.90
9564;DHT22;4820;50.870;4.702;2023-09-30T00:37:44;13.40;99.90
9564;DHT22;4820;50.870;4.702;2023-09-30T00:40:10;13.40;99.90
9564;DHT22;4820;50.870;4.702;2023-09-30T00:42:41;13.20;99.90
9564;DHT22;4820;50.870;4.702;2023-09-30T00:45:07;13.10;99.90
9564;DHT22;4820;50.870;4.702;2023-09-30T00:47:37;13.10;99.90
9564;DHT22;4820;50.870;4.702;2023-09-30T00:50:04;13.10;99.90
9564;DHT22;4820;50.870;4.702;2023-09-30T00:52:33;13.10;99.90
9564;DHT22;4820;50.870;4.702;2023-09-30T00:55:00;13.10;99.90
9564;DHT22;4820;50.870;4.702;2023-09-30T00:57:29;13.00;99.90
9564;DHT22;4820;50.870;4.702;2023-09-30T00:59:55;13.00;99.90
9564;DHT22;4820;50.870;4.702;2023-09-30T01:02:24;13.00;99.90
9564;DHT22;4820;50.870;4.702;2023-09-30T01:04:51;13.10;99.90
9564;DHT22;4820;50.870;4.702;2023-09-30T01:07:17;13.10;99.90
9564;DHT22;4820;50.870;4.702;2023-09-30T01:09:42;13.10;99.90
9564;DHT22;4820;50.870;4.702;2023-09-30T01:12:08;13.20;99.90
9564;DHT22;4820;50.870;4.702;2023-09-30T01:14:35;13.20;99.90
9564;DHT22;4820;50.870;4.702;2023-09-30T01:17:01;13.20;99.90
9564;DHT22;4820;50.870;4.702;2023-09-30T01:19:27;13.20;99.90
9564;DHT22;4820;50.870;4.702;2023-09-30T01:21:59;13.20;99.90
9564;DHT22;4820;50.870;4.702;2023-09-30T01:24:37;13.30;99.90
9564;DHT22;4820;50.870;4.702;2023-09-30T01:27:04;13.20;99.90
9564;DHT22;4820;50.870;4.702;2023-09-30T01:29:32;13.20;99.90
9564;DHT22;4820;50.870;4.702;2023-09-30T01:31:58;13.20;99.90
9564;DHT22;4820;50.870;4.702;2023-09-30T01:34:23;13.20;99.90
9564;DHT22;4820;50.870;4.702;2023-09-30T01:36:49;13.10;99.90
9564;DHT22;4820;50.870;4.702;2023-09-30T01:39:15;13.10;99.90
9564;DHT22;4820;50.870;4.702;2023-09-30T01:41:41;13.20;99.90
9564;DHT22;4820;50.870;4.702;2023-09-30T01:44:07;13.20;99.90
9564;DHT22;4820;50.870;4.702;2023-09-30T01:46:35;13.20;99.90
9564;DHT22;4820;50.870;4.702;2023-09-30T01:49:03;13.20;99.90
9564;DHT22;4820;50.870;4.702;2023-09-30T01:51:31;13.20;99.90
9564;DHT22;4820;50.870;4.702;2023-09-30T01:53:57;13.20;99.90
9564;DHT22;4820;50.870;4.702;2023-09-30T01:56:23;13.20;99.90
9564;DHT22;4820;50.870;4.702;2023-09-30T01:58:48;13.20;99.90
9564;DHT22;4820;50.870;4.702;2023-09-30T02:01:14;13.20;99.90
9564;DHT22;4820;50.870;4.702;2023-09-30T02:03:41;13.20;99.90
9564;DHT22;4820;50.870;4.702;2023-09-30T02:06:07;13.20;99.90
9564;DHT22;4820;50.870;4.702;2023-09-30T02:08:34;13.20;99.90
9564;DHT22;4820;50.870;4.702;2023-09-30T02:11:03;13.10;99.90
9564;DHT22;4820;50.870;4.702;2023-09-30T02:13:35;13.10;99.90
9564;DHT22;4820;50.870;4.702;2023-09-30T02:16:03;13.10;99.90
9564;DHT22;4820;50.870;4.702;2023-09-30T02:18:30;13.00;99.90
9564;DHT22;4820;50.870;4.702;2023-09-30T02:20:59;12.90;99.90
9564;DHT22;4820;50.870;4.702;2023-09-30T02:23:25;12.90;99.90
9564;DHT22;4820;50.870;4.702;2023-09-30T02:25:51;12.90;99.90
9564;DHT22;4820;50.870;4.702;2023-09-30T02:28:17;12.80;99.90
9564;DHT22;4820;50.870;4.702;2023-09-30T02:30:43;12.80;99.90
9564;DHT22;4820;50.870;4.702;2023-09-30T02:33:09;12.80;99.90
9564;DHT22;4820;50.870;4.702;2023-09-30T02:35:34;12.90;99.90
9564;DHT22;4820;50.870;4.702;2023-09-30T02:38:00;12.80;99.90
9564;DHT22;4820;50.870;4.702;2023-09-30T02:40:27;12.90;99.90
9564;DHT22;4820;50.870;4.702;2023-09-30T02:42:53;12.90;99.90
9564;DHT22;4820;50.870;4.702;2023-09-30T02:45:19;12.90;99.90
9564;DHT22;4820;50.870;4.702;2023-09-30T02:47:45;12.90;99.90
9564;DHT22;4820;50.870;4.702;2023-09-30T02:50:11;13.00;99.90
9564;DHT22;4820;50.870;4.702;2023-09-30T02:52:37;13.00;99.90
9564;DHT22;4820;50.870;4.702;2023-09-30T02:55:06;13.00;99.90
9564;DHT22;4820;50.870;4.702;2023-09-30T02:57:34;13.00;99.90
9564;DHT22;4820;50.870;4.702;2023-09-30T03:00:05;13.00;99.90
9564;DHT22;4820;50.870;4.702;2023-09-30T03:02:50;13.00;99.90
9564;DHT22;4820;50.870;4.702;2023-09-30T03:05:18;13.00;99.90
9564;DHT22;4820;50.870;4.702;2023-09-30T03:07:44;13.00;99.90
9564;DHT22;4820;50.870;4.702;2023-09-30T03:10:12;13.00;99.90
9564;DHT22;4820;50.870;4.702;2023-09-30T03:12:40;12.80;99.90
9564;DHT22;4820;50.870;4.702;2023-09-30T03:15:06;12.80;99.90
9564;DHT22;4820;50.870;4.702;2023-09-30T03:17:32;12.80;99.90
9564;DHT22;4820;50.870;4.702;2023-09-30T03:20:01;12.80;99.90
9564;DHT22;4820;50.870;4.702;2023-09-30T03:22:27;12.90;99.90
9564;DHT22;4820;50.870;4.702;2023-09-30T03:24:54;12.90;99.90
9564;DHT22;4820;50.870;4.702;2023-09-30T03:27:20;12.90;99.90
9564;DHT22;4820;50.870;4.702;2023-09-30T03:29:48;12.90;99.90
9564;DHT22;4820;50.870;4.702;2023-09-30T03:32:15;12.90;99.90
9564;DHT22;4820;50.870;4.702;2023-09-30T03:34:41;12.90;99.90
9564;DHT22;4820;50.870;4.702;2023-09-30T03:37:10;12.90;99.90
9564;DHT22;4820;50.870;4.702;2023-09-30T03:39:36;12.90;99.90
9564;DHT22;4820;50.870;4.702;2023-09-30T03:42:01;12.80;99.90
9564;DHT22;4820;50.870;4.702;2023-09-30T03:44:28;12.80;99.90
9564;DHT22;4820;50.870;4.702;2023-09-30T03:46:54;12.80;99.90
9564;DHT22;4820;50.870;4.702;2023-09-30T03:49:21;12.70;99.90
9564;DHT22;4820;50.870;4.702;2023-09-30T03:51:47;12.60;99.90
9564;DHT22;4820;50.870;4.702;2023-09-30T03:54:17;12.40;99.90
9564;DHT22;4820;50.870;4.702;2023-09-30T03:56:44;12.40;99.90
9564;DHT22;4820;50.870;4.702;2023-09-30T03:59:11;12.40;99.90
9564;DHT22;4820;50.870;4.702;2023-09-30T04:01:36;12.40;99.90
9564;DHT22;4820;50.870;4.702;2023-09-30T04:04:06;12.50;99.90
9564;DHT22;4820;50.870;4.702;2023-09-30T04:06:33;12.50;99.90
9564;DHT22;4820;50.870;4.702;2023-09-30T04:08:59;12.50;99.90
9564;DHT22;4820;50.870;4.702;2023-09-30T04:11:25;12.60;99.90
9564;DHT22;4820;50.870;4.702;2023-09-30T04:13:51;12.60;99.90
9564;DHT22;4820;50.870;4.702;2023-09-30T04:16:17;12.60;99.90
9564;DHT22;4820;50.870;4.702;2023-09-30T04:18:44;12.60;99.90
9564;DHT22;4820;50.870;4.702;2023-09-30T04:21:12;12.60;99.90
9564;DHT22;4820;50.870;4.702;2023-09-30T04:23:38;12.60;99.90
9564;DHT22;4820;50.870;4.702;2023-09-30T04:26:04;12.60;99.90
9564;DHT22;4820;50.870;4.702;2023-09-30T04:28:31;12.60;99.90
9564;DHT22;4820;50.870;4.702;2023-09-30T04:30:59;12.60;99.90
9564;DHT22;4820;50.870;4.702;2023-09-30T04:33:25;12.50;99.90
9564;DHT22;4820;50.870;4.702;2023-09-30T04:35:50;12.60;99.90
9564;DHT22;4820;50.870;4.702;2023-09-30T04:38:17;12.50;99.90
9564;DHT22;4820;50.870;4.702;2023-09-30T04:40:43;12.50;99.90
9564;DHT22;4820;50.870;4.702;2023-09-30T04:43:10;12.60;99.90
9564;DHT22;4820;50.870;4.702;2023-09-30T04:45:36;12.50;99.90
9564;DHT22;4820;50.870;4.702;2023-09-30T04:48:02;12.50;99.90
9564;DHT22;4820;50.870;4.702;2023-09-30T04:50:29;12.50;99.90
9564;DHT22;4820;50.870;4.702;2023-09-30T04:52:56;12.50;99.90
9564;DHT22;4820;50.870;4.702;2023-09-30T04:55:22;12.40;99.90
9564;DHT22;4820;50.870;4.702;2023-09-30T04:57:48;12.40;99.90
9564;DHT22;4820;50.870;4.702;2023-09-30T05:00:19;12.40;99.90
9564;DHT22;4820;50.870;4.702;2023-09-30T05:02:51;12.40;99.90
9564;DHT22;4820;50.870;4.702;2023-09-30T05:05:18;12.40;99.90
9564;DHT22;4820;50.870;4.702;2023-09-30T05:07:44;12.40;99.90
9564;DHT22;4820;50.870;4.702;2023-09-30T05:10:12;12.40;99.90
9564;DHT22;4820;50.870;4.702;2023-09-30T05:12:42;12.30;99.90
9564;DHT22;4820;50.870;4.702;2023-09-30T05:15:15;12.30;99.90
9564;DHT22;4820;50.870;4.702;2023-09-30T05:17:42;12.30;99.90
9564;DHT22;4820;50.870;4.702;2023-09-30T05:20:10;12.30;99.90
9564;DHT22;4820;50.870;4.702;2023-09-30T05:22:40;12.20;99.90
9564;DHT22;4820;50.870;4.702;2023-09-30T05:25:08;12.20;99.90
9564;DHT22;4820;50.870;4.702;2023-09-30T05:27:34;12.20;99.90
9564;DHT22;4820;50.870;4.702;2023-09-30T05:30:00;12.20;99.90
9564;DHT22;4820;50.870;4.702;2023-09-30T05:32:27;12.20;99.90
9564;DHT22;4820;50.870;4.702;2023-09-30T05:34:53;12.20;99.90
9564;DHT22;4820;50.870;4.702;2023-09-30T05:37:21;12.20;99.90
9564;DHT22;4820;50.870;4.702;2023-09-30T05:39:47;12.20;99.90
9564;DHT22;4820;50.870;4.702;2023-09-30T05:42:17;12.10;99.90
9564;DHT22;4820;50.870;4.702;2023-09-30T05:44:44;12.10;99.90
9564;DHT22;4820;50.870;4.702;2023-09-30T05:47:11;12.10;99.90
9564;DHT22;4820;50.870;4.702;2023-09-30T05:49:37;12.10;99.90
9564;DHT22;4820;50.870;4.702;2023-09-30T05:52:03;12.10;99.90
9564;DHT22;4820;50.870;4.702;2023-09-30T05:54:29;12.10;99.90
9564;DHT22;4820;50.870;4.702;2023-09-30T05:56:56;12.10;99.90
9564;DHT22;4820;50.870;4.702;2023-09-30T05:59:22;12.00;99.90
9564;DHT22;4820;50.870;4.702;2023-09-30T06:01:50;12.10;99.90
9564;DHT22;4820;50.870;4.702;2023-09-30T06:04:16;12.10;99.90
9564;DHT22;4820;50.870;4.702;2023-09-30T06:06:41;12.10;99.90
9564;DHT22;4820;50.870;4.702;2023-09-30T06:09:09;12.10;99.90
9564;DHT22;4820;50.870;4.702;2023-09-30T06:11:34;12.10;99.90
9564;DHT22;4820;50.870;4.702;2023-09-30T06:14:01;12.10;99.90
9564;DHT22;4820;50.870;4.702;2023-09-30T06:16:28;12.10;99.90
9564;DHT22;4820;50.870;4.702;2023-09-30T06:18:54;12.00;99.90
9564;DHT22;4820;50.870;4.702;2023-09-30T06:21:25;12.00;99.90
9564;DHT22;4820;50.870;4.702;2023-09-30T06:23:54;12.00;99.90
9564;DHT22;4820;50.870;4.702;2023-09-30T06:26:21;12.10;99.90
9564;DHT22;4820;50.870;4.702;2023-09-30T06:28:47;12.10;99.90
9564;DHT22;4820;50.870;4.702;2023-09-30T06:31:15;12.10;99.90
9564;DHT22;4820;50.870;4.702;2023-09-30T06:33:42;12.10;99.90
9564;DHT22;4820;50.870;4.702;2023-09-30T06:36:09;12.20;99.90
9564;DHT22;4820;50.870;4.702;2023-09-30T06:38:37;12.20;99.90
9564;DHT22;4820;50.870;4.702;2023-09-30T06:41:03;12.20;99.90
9564;DHT22;4820;50.870;4.702;2023-09-30T06:43:29;12.30;99.90
9564;DHT22;4820;50.870;4.702;2023-09-30T06:45:55;12.30;99.90
9564;DHT22;4820;50.870;4.702;2023-09-30T06:48:21;12.30;99.90
9564;DHT22;4820;50.870;4.702;2023-09-30T06:50:49;12.40;99.90
9564;DHT22;4820;50.870;4.702;2023-09-30T06:53:18;12.40;99.90
9564;DHT22;4820;50.870;4.702;2023-09-30T06:55:45;12.40;99.90
9564;DHT22;4820;50.870;4.702;2023-09-30T06:58:12;12.50;99.90
9564;DHT22;4820;50.870;4.702;2023-09-30T07:00:43;12.50;99.90
9564;DHT22;4820;50.870;4.702;2023-09-30T07:03:09;12.50;99.90
9564;DHT22;4820;50.870;4.702;2023-09-30T07:05:36;12.60;99.90
9564;DHT22;4820;50.870;4.702;2023-09-30T07:08:02;12.60;99.90
9564;DHT22;4820;50.870;4.702;2023-09-30T07:10:28;12.70;99.90
9564;DHT22;4820;50.870;4.702;2023-09-30T07:12:55;12.70;99.90
9564;DHT22;4820;50.870;4.702;2023-09-30T07:15:21;12.70;99.90
9564;DHT22;4820;50.870;4.702;2023-09-30T07:17:47;12.80;99.90
9564;DHT22;4820;50.870;4.702;2023-09-30T07:20:13;12.90;99.90
9564;DHT22;4820;50.870;4.702;2023-09-30T07:22:39;13.00;99.90
9564;DHT22;4820;50.870;4.702;2023-09-30T07:25:07;13.10;99.90
9564;DHT22;4820;50.870;4.702;2023-09-30T07:27:34;13.20;99.90
9564;DHT22;4820;50.870;4.702;2023-09-30T07:30:00;13.30;99.90
9564;DHT22;4820;50.870;4.702;2023-09-30T07:32:27;13.30;99.90
9564;DHT22;4820;50.870;4.702;2023-09-30T07:34:54;13.40;99.90
9564;DHT22;4820;50.870;4.702;2023-09-30T07:37:20;13.50;99.90
9564;DHT22;4820;50.870;4.702;2023-09-30T07:39:47;13.50;99.90
9564;DHT22;4820;50.870;4.702;2023-09-30T07:42:12;13.60;99.90
9564;DHT22;4820;50.870;4.702;2023-09-30T07:44:38;13.70;99.90
9564;DHT22;4820;50.870;4.702;2023-09-30T07:47:05;13.70;99.90
9564;DHT22;4820;50.870;4.702;2023-09-30T07:49:37;13.80;99.90
9564;DHT22;4820;50.870;4.702;2023-09-30T07:52:03;13.90;99.90
9564;DHT22;4820;50.870;4.702;2023-09-30T07:54:29;14.00;99.90
9564;DHT22;4820;50.870;4.702;2023-09-30T07:56:54;14.10;99.90
9564;DHT22;4820;50.870;4.702;2023-09-30T07:59:21;14.20;99.90
9564;DHT22;4820;50.870;4.702;2023-09-30T08:01:48;14.20;99.90
9564;DHT22;4820;50.870;4.702;2023-09-30T08:04:14;14.30;99.90
9564;DHT22;4820;50.870;4.702;2023-09-30T08:06:40;14.30;99.90
9564;DHT22;4820;50.870;4.702;2023-09-30T08:09:06;14.40;99.90
9564;DHT22;4820;50.870;4.702;2023-09-30T08:11:37;14.50;99.90
9564;DHT22;4820;50.870;4.702;2023-09-30T08:14:04;14.60;99.90
9564;DHT22;4820;50.870;4.702;2023-09-30T08:16:33;14.60;99.90
9564;DHT22;4820;50.870;4.702;2023-09-30T08:19:00;14.70;99.90
9564;DHT22;4820;50.870;4.702;2023-09-30T08:21:25;14.90;99.90
9564;DHT22;4820;50.870;4.702;2023-09-30T08:23:51;15.00;99.90
9564;DHT22;4820;50.870;4.702;2023-09-30T08:26:18;15.00;99.90
9564;DHT22;4820;50.870;4.702;2023-09-30T08:28:43;15.10;99.90
9564;DHT22;4820;50.870;4.702;2023-09-30T08:31:09;15.10;99.90
9564;DHT22;4820;50.870;4.702;2023-09-30T08:33:35;15.20;99.90
9564;DHT22;4820;50.870;4.702;2023-09-30T08:36:05;15.20;99.90
9564;DHT22;4820;50.870;4.702;2023-09-30T08:38:36;15.20;99.90
9564;DHT22;4820;50.870;4.702;2023-09-30T08:41:03;15.20;99.90
9564;DHT22;4820;50.870;4.702;2023-09-30T08:43:29;15.30;99.90
9564;DHT22;4820;50.870;4.702;2023-09-30T08:45:59;15.30;99.90
9564;DHT22;4820;50.870;4.702;2023-09-30T08:48:28;15.40;99.90
9564;DHT22;4820;50.870;4.702;2023-09-30T08:50:56;15.40;99.90
9564;DHT22;4820;50.870;4.702;2023-09-30T08:53:24;15.50;99.90
9564;DHT22;4820;50.870;4.702;2023-09-30T08:55:53;15.50;99.90
9564;DHT22;4820;50.870;4.702;2023-09-30T08:58:24;15.50;99.90
9564;DHT22;4820;50.870;4.702;2023-09-30T09:00:50;15.60;99.90
9564;DHT22;4820;50.870;4.702;2023-09-30T09:03:18;15.70;99.90
9564;DHT22;4820;50.870;4.702;2023-09-30T09:05:45;15.80;99.90
9564;DHT22;4820;50.870;4.702;2023-09-30T09:08:10;15.90;99.90
9564;DHT22;4820;50.870;4.702;2023-09-30T09:10:53;16.00;99.90
9564;DHT22;4820;50.870;4.702;2023-09-30T09:13:19;16.10;99.90
9564;DHT22;4820;50.870;4.702;2023-09-30T09:15:45;16.20;99.90
9564;DHT22;4820;50.870;4.702;2023-09-30T09:18:11;16.30;99.90
9564;DHT22;4820;50.870;4.702;2023-09-30T09:20:39;16.30;99.90
9564;DHT22;4820;50.870;4.702;2023-09-30T09:23:06;16.30;99.90
9564;DHT22;4820;50.870;4.702;2023-09-30T09:25:38;16.40;99.90
9564;DHT22;4820;50.870;4.702;2023-09-30T09:28:04;16.40;99.90
9564;DHT22;4820;50.870;4.702;2023-09-30T09:30:30;16.50;99.90
9564;DHT22;4820;50.870;4.702;2023-09-30T09:33:02;16.50;99.90
9564;DHT22;4820;50.870;4.702;2023-09-30T09:35:32;16.60;99.90
9564;DHT22;4820;50.870;4.702;2023-09-30T09:38:03;16.70;99.90
9564;DHT22;4820;50.870;4.702;2023-09-30T09:40:32;16.70;99.90
9564;DHT22;4820;50.870;4.702;2023-09-30T09:42:59;16.80;99.90
9564;DHT22;4820;50.870;4.702;2023-09-30T09:45:28;16.80;99.90
9564;DHT22;4820;50.870;4.702;2023-09-30T09:47:54;16.90;99.90
9564;DHT22;4820;50.870;4.702;2023-09-30T09:50:21;17.00;99.90
9564;DHT22;4820;50.870;4.702;2023-09-30T09:52:51;17.10;99.90
9564;DHT22;4820;50.870;4.702;2023-09-30T09:55:19;17.10;99.90
9564;DHT22;4820;50.870;4.702;2023-09-30T09:57:49;17.10;99.90
9564;DHT22;4820;50.870;4.702;2023-09-30T10:00:21;17.10;99.90
9564;DHT22;4820;50.870;4.702;2023-09-30T10:02:48;17.20;99.90
9564;DHT22;4820;50.870;4.702;2023-09-30T10:05:15;17.20;99.90
9564;DHT22;4820;50.870;4.702;2023-09-30T10:08:07;17.30;99.90
9564;DHT22;4820;50.870;4.702;2023-09-30T10:10:37;17.40;99.90
9564;DHT22;4820;50.870;4.702;2023-09-30T10:13:04;17.60;99.90
9564;DHT22;4820;50.870;4.702;2023-09-30T10:15:35;17.70;99.90
9564;DHT22;4820;50.870;4.702;2023-09-30T10:18:09;17.70;99.90
9564;DHT22;4820;50.870;4.702;2023-09-30T10:20:37;17.80;99.90
9564;DHT22;4820;50.870;4.702;2023-09-30T10:23:21;17.90;99.90
9564;DHT22;4820;50.870;4.702;2023-09-30T10:25:49;18.10;99.90
9564;DHT22;4820;50.870;4.702;2023-09-30T10:28:40;18.30;99.90
9564;DHT22;4820;50.870;4.702;2023-09-30T10:36:37;18.50;99.90
9564;DHT22;4820;50.870;4.702;2023-09-30T10:39:05;18.50;99.90
9564;DHT22;4820;50.870;4.702;2023-09-30T10:46:58;18.90;99.90
9564;DHT22;4820;50.870;4.702;2023-09-30T10:51:55;19.20;99.90
9564;DHT22;4820;50.870;4.702;2023-09-30T10:54:26;19.20;99.90
9564;DHT22;4820;50.870;4.702;2023-09-30T10:56:53;19.30;99.90
9564;DHT22;4820;50.870;4.702;2023-09-30T10:59:21;19.40;99.90
9564;DHT22;4820;50.870;4.702;2023-09-30T11:01:49;19.30;99.90
9564;DHT22;4820;50.870;4.702;2023-09-30T11:04:16;19.20;99.90
9564;DHT22;4820;50.870;4.702;2023-09-30T11:06:44;19.00;99.90
9564;DHT22;4820;50.870;4.702;2023-09-30T11:09:15;18.90;99.90
9564;DHT22;4820;50.870;4.702;2023-09-30T11:14:33;19.00;99.90
9564;DHT22;4820;50.870;4.702;2023-09-30T11:17:02;19.10;99.90
9564;DHT22;4820;50.870;4.702;2023-09-30T11:19:47;19.20;99.90
9564;DHT22;4820;50.870;4.702;2023-09-30T11:22:15;19.20;99.90
9564;DHT22;4820;50.870;4.702;2023-09-30T11:24:42;19.40;99.90
9564;DHT22;4820;50.870;4.702;2023-09-30T11:27:08;19.50;99.90
9564;DHT22;4820;50.870;4.702;2023-09-30T11:29:34;19.70;99.90
9564;DHT22;4820;50.870;4.702;2023-09-30T11:32:01;19.90;99.90
9564;DHT22;4820;50.870;4.702;2023-09-30T11:34:35;20.00;99.90
9564;DHT22;4820;50.870;4.702;2023-09-30T11:37:02;19.90;99.90
9564;DHT22;4820;50.870;4.702;2023-09-30T11:39:29;19.80;99.90
9564;DHT22;4820;50.870;4.702;2023-09-30T11:41:56;19.70;99.90
9564;DHT22;4820;50.870;4.702;2023-09-30T11:44:23;19.70;99.90
9564;DHT22;4820;50.870;4.702;2023-09-30T11:46:52;19.80;99.90
9564;DHT22;4820;50.870;4.702;2023-09-30T11:52:01;20.10;99.90
9564;DHT22;4820;50.870;4.702;2023-09-30T11:54:36;20.10;99.90
9564;DHT22;4820;50.870;4.702;2023-09-30T11:57:12;19.90;99.90
9564;DHT22;4820;50.870;4.702;2023-09-30T11:59:41;19.70;99.90
9564;DHT22;4820;50.870;4.702;2023-09-30T12:02:10;19.60;99.90
9564;DHT22;4820;50.870;4.702;2023-09-30T12:04:38;19.70;99.90
9564;DHT22;4820;50.870;4.702;2023-09-30T12:07:05;19.70;99.90
9564;DHT22;4820;50.870;4.702;2023-09-30T12:09:32;19.80;99.90
9564;DHT22;4820;50.870;4.702;2023-09-30T12:12:00;19.90;99.90
9564;DHT22;4820;50.870;4.702;2023-09-30T12:14:27;20.00;99.90
9564;DHT22;4820;50.870;4.702;2023-09-30T12:16:55;19.90;99.90
9564;DHT22;4820;50.870;4.702;2023-09-30T12:19:22;19.80;99.90
9564;DHT22;4820;50.870;4.702;2023-09-30T12:21:48;19.70;99.90
9564;DHT22;4820;50.870;4.702;2023-09-30T12:24:17;19.60;99.90
9564;DHT22;4820;50.870;4.702;2023-09-30T12:26:47;19.60;99.90
9564;DHT22;4820;50.870;4.702;2023-09-30T12:29:18;19.50;99.90
9564;DHT22;4820;50.870;4.702;2023-09-30T12:31:49;19.50;99.90
9564;DHT22;4820;50.870;4.702;2023-09-30T12:34:15;19.50;99.90
9564;DHT22;4820;50.870;4.702;2023-09-30T12:36:41;19.50;99.90
9564;DHT22;4820;50.870;4.702;2023-09-30T12:39:09;19.50;99.90
9564;DHT22;4820;50.870;4.702;2023-09-30T12:41:42;19.70;99.90
9564;DHT22;4820;50.870;4.702;2023-09-30T12:44:09;19.90;99.90
9564;DHT22;4820;50.870;4.702;2023-09-30T12:46:36;20.00;99.90
9564;DHT22;4820;50.870;4.702;2023-09-30T12:49:06;20.00;99.90
9564;DHT22;4820;50.870;4.702;2023-09-30T12:51:33;20.00;99.90
9564;DHT22;4820;50.870;4.702;2023-09-30T12:54:00;20.00;99.90
9564;DHT22;4820;50.870;4.702;2023-09-30T12:56:26;20.10;99.90
9564;DHT22;4820;50.870;4.702;2023-09-30T12:58:55;20.20;99.90
9564;DHT22;4820;50.870;4.702;2023-09-30T13:01:20;20.40;99.90
9564;DHT22;4820;50.870;4.702;2023-09-30T13:03:49;20.50;99.90
9564;DHT22;4820;50.870;4.702;2023-09-30T13:06:15;20.60;99.90
9564;DHT22;4820;50.870;4.702;2023-09-30T13:08:42;20.60;99.90
9564;DHT22;4820;50.870;4.702;2023-09-30T13:11:10;20.50;99.90
9564;DHT22;4820;50.870;4.702;2023-09-30T13:13:37;20.40;99.90
9564;DHT22;4820;50.870;4.702;2023-09-30T13:16:03;20.40;99.90
9564;DHT22;4820;50.870;4.702;2023-09-30T13:18:33;20.50;99.90
9564;DHT22;4820;50.870;4.702;2023-09-30T13:21:00;20.50;99.90
9564;DHT22;4820;50.870;4.702;2023-09-30T13:23:25;20.50;99.90
9564;DHT22;4820;50.870;4.702;2023-09-30T13:25:53;20.60;99.90
9564;DHT22;4820;50.870;4.702;2023-09-30T13:28:18;20.60;99.90
9564;DHT22;4820;50.870;4.702;2023-09-30T13:30:44;20.60;99.90
9564;DHT22;4820;50.870;4.702;2023-09-30T13:33:11;20.50;99.90
9564;DHT22;4820;50.870;4.702;2023-09-30T13:35:37;20.50;99.90
9564;DHT22;4820;50.870;4.702;2023-09-30T13:38:04;20.70;99.90
9564;DHT22;4820;50.870;4.702;2023-09-30T13:40:30;20.90;99.90
9564;DHT22;4820;50.870;4.702;2023-09-30T13:42:56;21.00;99.90
9564;DHT22;4820;50.870;4.702;2023-09-30T13:45:25;21.10;99.90
9564;DHT22;4820;50.870;4.702;2023-09-30T13:47:53;21.20;99.90
9564;DHT22;4820;50.870;4.702;2023-09-30T13:50:19;21.00;99.90
9564;DHT22;4820;50.870;4.702;2023-09-30T13:52:45;21.00;99.90
9564;DHT22;4820;50.870;4.702;2023-09-30T13:55:12;20.90;99.90
9564;DHT22;4820;50.870;4.702;2023-09-30T13:57:46;20.90;99.90
9564;DHT22;4820;50.870;4.702;2023-09-30T14:00:14;20.80;99.90
9564;DHT22;4820;50.870;4.702;2023-09-30T14:02:40;20.70;99.90
9564;DHT22;4820;50.870;4.702;2023-09-30T14:05:06;20.80;99.90
9564;DHT22;4820;50.870;4.702;2023-09-30T14:07:35;20.70;99.90
9564;DHT22;4820;50.870;4.702;2023-09-30T14:10:03;20.60;99.90
9564;DHT22;4820;50.870;4.702;2023-09-30T14:12:30;20.60;99.90
9564;DHT22;4820;50.870;4.702;2023-09-30T14:14:57;20.60;99.90
9564;DHT22;4820;50.870;4.702;2023-09-30T14:17:22;20.50;99.90
9564;DHT22;4820;50.870;4.702;2023-09-30T14:19:48;20.60;99.90
9564;DHT22;4820;50.870;4.702;2023-09-30T14:22:15;20.60;99.90
9564;DHT22;4820;50.870;4.702;2023-09-30T14:24:40;20.60;99.90
9564;DHT22;4820;50.870;4.702;2023-09-30T14:27:06;20.60;99.90
9564;DHT22;4820;50.870;4.702;2023-09-30T14:29:33;20.70;99.90
9564;DHT22;4820;50.870;4.702;2023-09-30T14:31:59;20.70;99.90
9564;DHT22;4820;50.870;4.702;2023-09-30T14:34:24;20.70;99.90
9564;DHT22;4820;50.870;4.702;2023-09-30T14:36:51;20.70;99.90
9564;DHT22;4820;50.870;4.702;2023-09-30T14:39:18;20.70;99.90
9564;DHT22;4820;50.870;4.702;2023-09-30T14:41:44;20.70;99.90
9564;DHT22;4820;50.870;4.702;2023-09-30T14:44:10;20.70;99.90
9564;DHT22;4820;50.870;4.702;2023-09-30T14:46:38;20.70;99.90
9564;DHT22;4820;50.870;4.702;2023-09-30T14:49:04;20.70;99.90
9564;DHT22;4820;50.870;4.702;2023-09-30T14:51:32;20.60;99.90
9564;DHT22;4820;50.870;4.702;2023-09-30T14:53:58;20.50;99.90
9564;DHT22;4820;50.870;4.702;2023-09-30T14:56:23;20.40;99.90
9564;DHT22;4820;50.870;4.702;2023-09-30T14:58:49;20.50;99.90
9564;DHT22;4820;50.870;4.702;2023-09-30T15:01:15;20.40;99.90
9564;DHT22;4820;50.870;4.702;2023-09-30T15:03:40;20.40;99.90
9564;DHT22;4820;50.870;4.702;2023-09-30T15:06:07;20.40;99.90
9564;DHT22;4820;50.870;4.702;2023-09-30T15:08:33;20.30;99.90
9564;DHT22;4820;50.870;4.702;2023-09-30T15:10:59;20.20;99.90
9564;DHT22;4820;50.870;4.702;2023-09-30T15:13:25;20.30;99.90
9564;DHT22;4820;50.870;4.702;2023-09-30T15:15:51;20.40;99.90
9564;DHT22;4820;50.870;4.702;2023-09-30T15:18:17;20.50;99.90
9564;DHT22;4820;50.870;4.702;2023-09-30T15:20:43;20.60;99.90
9564;DHT22;4820;50.870;4.702;2023-09-30T15:23:10;20.60;99.90
9564;DHT22;4820;50.870;4.702;2023-09-30T15:25:43;20.70;99.90
9564;DHT22;4820;50.870;4.702;2023-09-30T15:28:11;20.80;99.90
9564;DHT22;4820;50.870;4.702;2023-09-30T15:30:40;20.70;99.90
9564;DHT22;4820;50.870;4.702;2023-09-30T15:33:05;20.60;99.90
9564;DHT22;4820;50.870;4.702;2023-09-30T15:35:31;20.60;99.90
9564;DHT22;4820;50.870;4.702;2023-09-30T15:38:01;20.50;99.90
9564;DHT22;4820;50.870;4.702;2023-09-30T15:40:26;20.50;99.90
9564;DHT22;4820;50.870;4.702;2023-09-30T15:42:53;20.40;99.90
9564;DHT22;4820;50.870;4.702;2023-09-30T15:45:19;20.40;99.90
9564;DHT22;4820;50.870;4.702;2023-09-30T15:47:44;20.30;99.90
9564;DHT22;4820;50.870;4.702;2023-09-30T15:50:10;20.30;99.90
9564;DHT22;4820;50.870;4.702;2023-09-30T15:52:37;20.30;99.90
9564;DHT22;4820;50.870;4.702;2023-09-30T15:55:02;20.30;99.90
9564;DHT22;4820;50.870;4.702;2023-09-30T15:57:30;20.30;99.90
9564;DHT22;4820;50.870;4.702;2023-09-30T15:59:56;20.30;99.90
9564;DHT22;4820;50.870;4.702;2023-09-30T16:02:21;20.20;99.90
9564;DHT22;4820;50.870;4.702;2023-09-30T16:04:47;20.20;99.90
9564;DHT22;4820;50.870;4.702;2023-09-30T16:07:13;20.20;99.90
9564;DHT22;4820;50.870;4.702;2023-09-30T16:09:39;20.10;99.90
9564;DHT22;4820;50.870;4.702;2023-09-30T16:12:05;20.10;99.90
9564;DHT22;4820;50.870;4.702;2023-09-30T16:14:31;20.10;99.90
9564;DHT22;4820;50.870;4.702;2023-09-30T16:16:59;20.10;99.90
9564;DHT22;4820;50.870;4.702;2023-09-30T16:19:26;20.10;99.90
9564;DHT22;4820;50.870;4.702;2023-09-30T16:21:53;20.10;99.90